Time;durP1;ratioP1;P1;durP2;ratioP2;P2;SDS_P1;SDS_P2;PMS_P1;PMS_P2;Temp;Humidity;BMP_temperature;BMP_pressure;BME280_temperature;BME280_humidity;BME280_pressure;Samples;Min_cycle;Max_cycle;Signal;HPM_P1;HPM_P2
2021/12/08 00:02:01;;;;;;;;;;;3.30;70.20;;;;;;4996307;28;19928;-69
2021/12/08 00:04:26;;;;;;;;;;;3.30;70.90;;;;;;4996265;28;19964;-70
2021/12/08 00:06:52;;;;;;;;;;;3.30;71.20;;;;;;4996104;28;19946;-71
2021/12/08 00:09:27;;;;;;;;;;;3.30;71.10;;;;;;4996448;28;19968;-69
2021/12/08 00:14:36;;;;;;;;;;;3.30;71.40;;;;;;4996679;28;19929;-70
2021/12/08 00:17:02;;;;;;;;;;;3.20;71.50;;;;;;4996119;28;19918;-70
2021/12/08 00:19:29;;;;;;;;;;;3.40;71.20;;;;;;4996035;28;19954;-72
2021/12/08 00:21:54;;;;;;;;;;;3.30;71.40;;;;;;4995985;28;20310;-64
2021/12/08 00:24:20;;;;;;;;;;;3.30;71.40;;;;;;4995927;28;19922;-66
2021/12/08 00:26:45;;;;;;;;;;;3.50;70.40;;;;;;4995834;28;20045;-68
2021/12/08 00:29:11;;;;;;;;;;;3.40;70.30;;;;;;4995866;28;19930;-68
2021/12/08 00:31:38;;;;;;;;;;;3.40;70.40;;;;;;4995772;28;19937;-66
2021/12/08 00:34:03;;;;;;;;;;;3.40;71.10;;;;;;4995678;28;20020;-71
2021/12/08 00:36:40;;;;;;;;;;;3.40;70.60;;;;;;4995786;28;20344;-65
2021/12/08 00:39:05;;;;;;;;;;;3.30;70.60;;;;;;4995695;28;19930;-63
2021/12/08 00:41:31;;;;;;;;;;;3.30;70.70;;;;;;4995327;28;20006;-71
2021/12/08 00:43:56;;;;;;;;;;;3.20;71.90;;;;;;4995808;28;20384;-68
2021/12/08 00:46:22;;;;;;;;;;;3.20;71.70;;;;;;4995605;28;20278;-71
2021/12/08 00:48:50;;;;;;;;;;;3.20;71.50;;;;;;4995402;28;20328;-70
2021/12/08 00:51:16;;;;;;;;;;;3.20;71.10;;;;;;4995420;28;19961;-70
2021/12/08 00:53:42;;;;;;;;;;;3.20;71.10;;;;;;4995461;28;19929;-67
2021/12/08 00:56:08;;;;;;;;;;;3.20;71.60;;;;;;4995280;28;20018;-64
2021/12/08 00:58:33;;;;;;;;;;;3.20;71.80;;;;;;4995458;28;19929;-68
2021/12/08 01:00:59;;;;;;;;;;;3.10;72.10;;;;;;4995088;28;19986;-69
2021/12/08 01:03:24;;;;;;;;;;;3.20;71.90;;;;;;4995271;28;20322;-70
2021/12/08 01:05:52;;;;;;;;;;;3.20;72.10;;;;;;4994907;28;19953;-69
2021/12/08 01:08:18;;;;;;;;;;;3.20;71.40;;;;;;4995432;28;20339;-59
2021/12/08 01:10:45;;;;;;;;;;;3.30;71.10;;;;;;4977968;28;19943;-70
2021/12/08 01:13:12;;;;;;;;;;;3.30;70.30;;;;;;4994912;28;19927;-68
2021/12/08 01:15:53;;;;;;;;;;;3.30;70.20;;;;;;4977602;28;20397;-69
2021/12/08 01:18:19;;;;;;;;;;;3.40;70.20;;;;;;4994822;28;20011;-69
2021/12/08 01:20:45;;;;;;;;;;;3.50;69.90;;;;;;4994898;28;19975;-68
2021/12/08 01:23:11;;;;;;;;;;;3.40;69.60;;;;;;4994679;28;19922;-70
2021/12/08 01:25:37;;;;;;;;;;;3.40;69.10;;;;;;4994490;28;19922;-69
2021/12/08 01:28:03;;;;;;;;;;;3.40;69.30;;;;;;4994625;28;19945;-61
2021/12/08 01:30:28;;;;;;;;;;;3.40;69.20;;;;;;4994767;28;19947;-68
2021/12/08 01:32:55;;;;;;;;;;;3.40;69.40;;;;;;4994736;28;20378;-70
2021/12/08 01:35:21;;;;;;;;;;;3.40;69.30;;;;;;4994206;28;19925;-67
2021/12/08 01:37:47;;;;;;;;;;;3.50;68.80;;;;;;4994874;28;19925;-72
2021/12/08 01:40:14;;;;;;;;;;;3.50;68.70;;;;;;4994553;28;19946;-62
2021/12/08 01:42:46;;;;;;;;;;;3.50;68.90;;;;;;4994295;28;19920;-69
2021/12/08 01:47:57;;;;;;;;;;;3.40;69.40;;;;;;4994446;28;20377;-68
2021/12/08 01:50:23;;;;;;;;;;;3.40;69.60;;;;;;4994547;28;19936;-66
2021/12/08 01:52:49;;;;;;;;;;;3.30;69.90;;;;;;4994504;28;20001;-70
2021/12/08 01:55:15;;;;;;;;;;;3.30;69.90;;;;;;4994461;28;20526;-69
2021/12/08 01:57:40;;;;;;;;;;;3.30;69.40;;;;;;4994336;28;19932;-65
2021/12/08 02:00:11;;;;;;;;;;;3.50;68.10;;;;;;4993954;28;19989;-70
2021/12/08 02:02:36;;;;;;;;;;;3.60;67.90;;;;;;4994271;28;19931;-66
2021/12/08 02:05:02;;;;;;;;;;;3.60;67.90;;;;;;4994023;28;19960;-70
2021/12/08 02:07:29;;;;;;;;;;;3.50;68.40;;;;;;4994160;28;19951;-64
2021/12/08 02:09:55;;;;;;;;;;;3.50;68.20;;;;;;4994248;28;19945;-68
2021/12/08 02:12:21;;;;;;;;;;;3.60;67.90;;;;;;4994133;28;19925;-65
2021/12/08 02:14:46;;;;;;;;;;;3.70;67.40;;;;;;4994317;28;19924;-72
2021/12/08 02:17:12;;;;;;;;;;;3.70;67.20;;;;;;4994180;28;20289;-69
2021/12/08 02:19:38;;;;;;;;;;;3.70;65.60;;;;;;4994305;28;19992;-63
2021/12/08 02:22:04;;;;;;;;;;;3.80;64.60;;;;;;4994678;28;19972;-63
2021/12/08 02:24:29;;;;;;;;;;;3.70;65.60;;;;;;4994019;28;19922;-70
2021/12/08 02:26:57;;;;;;;;;;;3.50;66.80;;;;;;4994041;28;19989;-68
2021/12/08 02:29:33;;;;;;;;;;;3.40;68.10;;;;;;4994177;28;19932;-60
2021/12/08 02:32:10;;;;;;;;;;;3.30;68.90;;;;;;4994452;28;19985;-65
2021/12/08 02:48:30;;;;;;;;;;;3.20;68.00;;;;;;4997946;28;20452;-59
2021/12/08 02:50:57;;;;;;;;;;;3.20;67.70;;;;;;4998608;28;19940;-60
2021/12/08 02:53:23;;;;;;;;;;;3.30;66.80;;;;;;4999313;28;20299;-61
2021/12/08 02:55:49;;;;;;;;;;;3.30;67.30;;;;;;4999190;28;19995;-62
2021/12/08 02:58:15;;;;;;;;;;;3.30;67.10;;;;;;4997773;28;20367;-60
2021/12/08 03:00:46;;;;;;;;;;;3.40;65.50;;;;;;4997802;28;19979;-60
2021/12/08 03:03:11;;;;;;;;;;;3.50;64.20;;;;;;4997766;28;19924;-60
2021/12/08 03:05:37;;;;;;;;;;;3.50;64.50;;;;;;4997531;28;19967;-60
2021/12/08 03:08:03;;;;;;;;;;;3.60;63.40;;;;;;4997397;28;19945;-61
2021/12/08 03:10:30;;;;;;;;;;;3.70;62.20;;;;;;4997826;28;20032;-62
2021/12/08 03:12:56;;;;;;;;;;;3.80;61.70;;;;;;4997732;28;20011;-61
2021/12/08 03:15:21;;;;;;;;;;;4.00;60.10;;;;;;4997633;28;20420;-65
2021/12/08 03:17:47;;;;;;;;;;;4.00;59.90;;;;;;4998663;28;19928;-69
2021/12/08 03:20:15;;;;;;;;;;;3.90;62.30;;;;;;4997066;28;19942;-68
2021/12/08 03:22:45;;;;;;;;;;;3.70;62.90;;;;;;4997688;28;19927;-70
2021/12/08 03:25:15;;;;;;;;;;;3.50;63.40;;;;;;4997835;28;19933;-72
2021/12/08 03:27:49;;;;;;;;;;;3.40;64.80;;;;;;4997143;28;19955;-71
2021/12/08 03:30:25;;;;;;;;;;;3.30;65.40;;;;;;4996926;28;19938;-69
2021/12/08 03:32:55;;;;;;;;;;;3.10;66.10;;;;;;4997179;28;19929;-69
2021/12/08 03:35:22;;;;;;;;;;;3.00;67.50;;;;;;4996914;28;20384;-61
2021/12/08 03:37:48;;;;;;;;;;;3.00;67.10;;;;;;4997400;28;20256;-65
2021/12/08 03:40:15;;;;;;;;;;;3.00;67.50;;;;;;4997332;28;19942;-68
2021/12/08 03:42:41;;;;;;;;;;;2.90;67.40;;;;;;4996922;28;20388;-69
2021/12/08 03:45:10;;;;;;;;;;;2.90;67.10;;;;;;4997005;28;19964;-66
2021/12/08 03:47:38;;;;;;;;;;;2.90;67.50;;;;;;4995898;28;19950;-69
2021/12/08 03:50:11;;;;;;;;;;;2.80;67.90;;;;;;4996622;28;19933;-69
2021/12/08 03:52:39;;;;;;;;;;;2.90;67.80;;;;;;4996900;28;19957;-71
2021/12/08 03:55:06;;;;;;;;;;;2.90;67.30;;;;;;4996579;28;20018;-72
2021/12/08 03:57:32;;;;;;;;;;;2.80;67.90;;;;;;4996594;28;20432;-70
2021/12/08 03:59:58;;;;;;;;;;;2.90;67.50;;;;;;4996681;28;20027;-66
2021/12/08 04:02:23;;;;;;;;;;;3.00;66.90;;;;;;4996771;28;20049;-68
2021/12/08 04:04:51;;;;;;;;;;;3.00;66.50;;;;;;4996499;28;19957;-68
2021/12/08 04:07:17;;;;;;;;;;;3.30;64.40;;;;;;4995943;28;20414;-69
2021/12/08 04:09:45;;;;;;;;;;;3.50;64.40;;;;;;4996206;28;20404;-67
2021/12/08 04:12:12;;;;;;;;;;;3.40;65.00;;;;;;4995985;28;19938;-71
2021/12/08 04:14:39;;;;;;;;;;;3.40;64.80;;;;;;4996262;28;19964;-70
2021/12/08 04:17:11;;;;;;;;;;;3.40;64.80;;;;;;4996231;28;19933;-69
2021/12/08 04:19:37;;;;;;;;;;;3.40;64.70;;;;;;4996213;28;20365;-69
2021/12/08 04:22:11;;;;;;;;;;;3.40;65.40;;;;;;4996329;28;19924;-63
2021/12/08 04:24:37;;;;;;;;;;;3.30;65.90;;;;;;4995966;28;20042;-69
2021/12/08 04:27:06;;;;;;;;;;;3.20;67.10;;;;;;4996055;28;20365;-68
2021/12/08 04:29:34;;;;;;;;;;;3.10;67.50;;;;;;4995839;28;19925;-70
2021/12/08 04:32:00;;;;;;;;;;;3.20;67.80;;;;;;4996014;28;19997;-71
2021/12/08 04:34:30;;;;;;;;;;;3.10;67.90;;;;;;4995888;28;19923;-67
2021/12/08 04:37:01;;;;;;;;;;;3.10;67.90;;;;;;4995837;28;20445;-68
2021/12/08 04:39:35;;;;;;;;;;;3.20;68.00;;;;;;4996096;28;19934;-69
2021/12/08 04:42:07;;;;;;;;;;;3.20;68.00;;;;;;4995981;28;19924;-69
2021/12/08 04:44:43;;;;;;;;;;;3.20;67.50;;;;;;4995685;28;19920;-69
2021/12/08 05:00:47;;;;;;;;;;;3.20;69.60;;;;;;4994359;28;19957;-60
2021/12/08 05:08:40;;;;;;;;;;;3.20;69.50;;;;;;4964872;28;20415;-64
2021/12/08 05:11:07;;;;;;;;;;;3.20;69.60;;;;;;4994870;28;19948;-59
2021/12/08 05:13:32;;;;;;;;;;;3.20;69.90;;;;;;4995063;28;19930;-64
2021/12/08 05:15:58;;;;;;;;;;;3.20;70.30;;;;;;4995025;28;19918;-64
2021/12/08 05:18:29;;;;;;;;;;;3.20;71.10;;;;;;4994918;28;19991;-68
2021/12/08 05:21:03;;;;;;;;;;;3.30;70.10;;;;;;4994983;28;19933;-72
2021/12/08 05:23:41;;;;;;;;;;;3.30;70.50;;;;;;4994816;28;19936;-66
2021/12/08 05:26:18;;;;;;;;;;;3.40;70.50;;;;;;4994824;28;19970;-72
2021/12/08 05:28:45;;;;;;;;;;;3.40;70.60;;;;;;4994923;28;19937;-69
2021/12/08 05:31:17;;;;;;;;;;;3.50;70.60;;;;;;4994884;28;19939;-70
2021/12/08 05:33:44;;;;;;;;;;;3.60;70.20;;;;;;4994641;28;19924;-59
2021/12/08 05:36:10;;;;;;;;;;;3.60;70.90;;;;;;4994469;28;19922;-69
2021/12/08 05:38:36;;;;;;;;;;;3.70;71.30;;;;;;4994611;28;20281;-69
2021/12/08 05:41:22;;;;;;;;;;;3.70;71.10;;;;;;4994640;28;19934;-70
2021/12/08 05:43:48;;;;;;;;;;;3.70;71.40;;;;;;4994539;28;20364;-69
2021/12/08 05:46:15;;;;;;;;;;;3.80;71.40;;;;;;4994295;28;19966;-65
2021/12/08 05:48:41;;;;;;;;;;;3.80;71.80;;;;;;4994351;28;20387;-71
2021/12/08 05:51:09;;;;;;;;;;;3.80;72.00;;;;;;4994460;28;19937;-69
2021/12/08 05:53:36;;;;;;;;;;;3.80;72.40;;;;;;4994887;28;19952;-71
2021/12/08 05:56:04;;;;;;;;;;;3.80;72.10;;;;;;4994337;28;19918;-68
2021/12/08 05:58:29;;;;;;;;;;;3.90;72.10;;;;;;4994509;28;19978;-69
2021/12/08 06:00:58;;;;;;;;;;;4.00;71.80;;;;;;4994256;28;19943;-69
2021/12/08 06:03:23;;;;;;;;;;;4.10;71.40;;;;;;4994971;28;20416;-66
2021/12/08 06:05:51;;;;;;;;;;;4.20;71.80;;;;;;4994366;28;20014;-70
2021/12/08 06:08:17;;;;;;;;;;;4.30;72.10;;;;;;4994103;28;19948;-68
2021/12/08 06:10:44;;;;;;;;;;;4.40;71.20;;;;;;4994126;28;19940;-61
2021/12/08 06:13:11;;;;;;;;;;;4.50;71.20;;;;;;4994085;28;19964;-72
2021/12/08 06:15:37;;;;;;;;;;;4.40;71.10;;;;;;4994066;28;19925;-69
2021/12/08 06:18:03;;;;;;;;;;;4.50;71.00;;;;;;4994394;28;19931;-70
2021/12/08 06:20:29;;;;;;;;;;;4.50;71.30;;;;;;4993989;28;19980;-69
2021/12/08 06:22:56;;;;;;;;;;;4.60;70.70;;;;;;4994189;28;19968;-69
2021/12/08 06:25:23;;;;;;;;;;;4.60;71.00;;;;;;4976500;28;20294;-70
2021/12/08 06:27:49;;;;;;;;;;;4.60;70.60;;;;;;4976560;28;19950;-71
2021/12/08 06:30:17;;;;;;;;;;;4.80;67.90;;;;;;4976379;28;20135;-70
2021/12/08 06:32:43;;;;;;;;;;;4.90;65.00;;;;;;4993907;28;19928;-69
2021/12/08 06:35:11;;;;;;;;;;;5.00;64.70;;;;;;4994247;28;19932;-70
2021/12/08 06:37:40;;;;;;;;;;;5.00;64.60;;;;;;4976506;28;19920;-69
2021/12/08 06:40:14;;;;;;;;;;;5.00;65.00;;;;;;4994111;28;20466;-69
2021/12/08 06:42:41;;;;;;;;;;;5.00;65.40;;;;;;4993944;28;19921;-69
2021/12/08 06:45:08;;;;;;;;;;;5.10;63.40;;;;;;4994139;28;19950;-71
2021/12/08 06:47:34;;;;;;;;;;;5.10;63.20;;;;;;4993895;28;19954;-69
2021/12/08 06:50:03;;;;;;;;;;;5.20;60.60;;;;;;4995452;28;20370;-69
2021/12/08 06:52:31;;;;;;;;;;;5.30;59.50;;;;;;4998652;28;19920;-69
2021/12/08 06:54:57;;;;;;;;;;;5.30;61.30;;;;;;4997095;28;19942;-71
2021/12/08 06:57:28;;;;;;;;;;;5.20;59.90;;;;;;4993742;28;20423;-67
2021/12/08 07:00:00;;;;;;;;;;;5.30;58.00;;;;;;4993398;28;19929;-69
2021/12/08 07:02:52;;;;;;;;;;;5.50;56.50;;;;;;4993778;28;20303;-69
2021/12/08 07:05:28;;;;;;;;;;;5.60;56.40;;;;;;4993234;28;19957;-68
2021/12/08 07:07:55;;;;;;;;;;;5.70;56.00;;;;;;4977189;28;19947;-63
2021/12/08 07:10:24;;;;;;;;;;;5.70;57.20;;;;;;4994900;28;19989;-68
2021/12/08 07:12:57;;;;;;;;;;;5.70;58.40;;;;;;4998994;28;19923;-72
2021/12/08 07:15:30;;;;;;;;;;;5.70;58.70;;;;;;4997952;28;19929;-72
2021/12/08 07:17:59;;;;;;;;;;;5.70;59.80;;;;;;4981043;28;19928;-68
2021/12/08 07:23:13;;;;;;;;;;;5.70;59.50;;;;;;4994581;28;20450;-65
2021/12/08 07:25:38;;;;;;;;;;;5.60;60.80;;;;;;4997169;28;20291;-69
2021/12/08 07:28:04;;;;;;;;;;;5.90;62.20;;;;;;4996990;28;19946;-70
2021/12/08 07:30:40;;;;;;;;;;;6.00;58.10;;;;;;4996731;28;19992;-71
2021/12/08 07:33:06;;;;;;;;;;;6.10;58.40;;;;;;4997036;28;19929;-70
2021/12/08 07:35:36;;;;;;;;;;;6.20;58.40;;;;;;4996467;28;19934;-70
2021/12/08 07:38:02;;;;;;;;;;;6.30;58.40;;;;;;4996551;28;19969;-69
2021/12/08 07:40:34;;;;;;;;;;;6.20;59.50;;;;;;4996393;28;19946;-69
2021/12/08 07:43:03;;;;;;;;;;;6.20;59.10;;;;;;4996340;28;19923;-67
2021/12/08 07:45:32;;;;;;;;;;;6.20;61.10;;;;;;4996489;28;19922;-65
2021/12/08 07:47:58;;;;;;;;;;;6.10;59.70;;;;;;4988166;28;19959;-67
2021/12/08 07:50:29;;;;;;;;;;;6.10;59.00;;;;;;4979220;28;19946;-62
2021/12/08 07:52:55;;;;;;;;;;;6.00;63.30;;;;;;4978807;28;19928;-62
2021/12/08 07:55:29;;;;;;;;;;;6.00;62.70;;;;;;4978067;28;19921;-63
2021/12/08 07:57:56;;;;;;;;;;;6.00;60.40;;;;;;4981122;28;19929;-63
2021/12/08 08:00:25;;;;;;;;;;;6.00;61.40;;;;;;4976035;28;20317;-62
2021/12/08 08:02:51;;;;;;;;;;;6.10;60.90;;;;;;4976744;28;20370;-62
2021/12/08 08:05:18;;;;;;;;;;;6.10;62.10;;;;;;4976500;28;19959;-62
2021/12/08 08:07:44;;;;;;;;;;;6.20;59.00;;;;;;4976820;28;19945;-62
2021/12/08 08:10:14;;;;;;;;;;;6.30;56.60;;;;;;4976393;28;20024;-62
2021/12/08 08:12:41;;;;;;;;;;;6.40;57.60;;;;;;4976588;28;19935;-63
2021/12/08 08:15:12;;;;;;;;;;;6.50;58.90;;;;;;4976612;28;19926;-61
2021/12/08 08:17:43;;;;;;;;;;;6.50;55.60;;;;;;4976536;28;20364;-61
2021/12/08 08:20:11;;;;;;;;;;;6.70;57.20;;;;;;4976085;28;20458;-65
2021/12/08 08:22:37;;;;;;;;;;;6.80;57.00;;;;;;4991282;28;19988;-65
2021/12/08 08:25:03;;;;;;;;;;;6.90;56.10;;;;;;4978363;28;20368;-64
2021/12/08 08:27:30;;;;;;;;;;;7.10;51.10;;;;;;4977350;28;20496;-65
2021/12/08 08:29:56;;;;;;;;;;;7.20;49.30;;;;;;4976072;28;20406;-66
2021/12/08 08:32:29;;;;;;;;;;;7.40;46.60;;;;;;4975746;28;19918;-65
2021/12/08 08:34:58;;;;;;;;;;;7.40;46.80;;;;;;4974245;28;20377;-63
2021/12/08 08:37:23;;;;;;;;;;;7.50;46.90;;;;;;4979432;28;19925;-71
2021/12/08 08:39:51;;;;;;;;;;;7.60;46.10;;;;;;4957887;28;20352;-69
2021/12/08 08:42:27;;;;;;;;;;;7.60;47.50;;;;;;4978413;28;19923;-72
2021/12/08 08:45:13;;;;;;;;;;;7.60;47.50;;;;;;4978771;28;20060;-66
2021/12/08 08:47:41;;;;;;;;;;;7.70;47.00;;;;;;4983302;28;20348;-69
2021/12/08 08:50:09;;;;;;;;;;;7.80;46.70;;;;;;4979133;28;19938;-70
2021/12/08 08:52:39;;;;;;;;;;;7.80;46.30;;;;;;4979953;28;19937;-66
2021/12/08 08:55:10;;;;;;;;;;;7.80;46.20;;;;;;4980253;28;19998;-65
2021/12/08 08:57:37;;;;;;;;;;;7.90;46.70;;;;;;4978637;28;20423;-60
2021/12/08 09:00:11;;;;;;;;;;;8.00;46.60;;;;;;4976872;28;19941;-70
2021/12/08 09:02:39;;;;;;;;;;;8.00;46.50;;;;;;4975880;28;20289;-69
2021/12/08 09:05:25;;;;;;;;;;;8.10;47.00;;;;;;4958571;28;20311;-70
2021/12/08 09:07:52;;;;;;;;;;;8.20;47.10;;;;;;4968688;28;20372;-71
2021/12/08 09:10:20;;;;;;;;;;;8.20;47.50;;;;;;4975361;28;19944;-67
2021/12/08 09:12:49;;;;;;;;;;;8.30;47.30;;;;;;4975396;28;19930;-70
2021/12/08 09:15:17;;;;;;;;;;;8.30;47.80;;;;;;4975191;28;19925;-70
2021/12/08 09:17:48;;;;;;;;;;;8.40;48.10;;;;;;4975648;28;19923;-70
2021/12/08 09:20:25;;;;;;;;;;;8.50;47.90;;;;;;4975387;28;19941;-69
2021/12/08 09:22:56;;;;;;;;;;;8.50;48.00;;;;;;4975117;28;19928;-69
2021/12/08 09:25:31;;;;;;;;;;;8.50;48.20;;;;;;4976943;28;19965;-67
2021/12/08 09:27:59;;;;;;;;;;;8.60;47.80;;;;;;4978265;28;19947;-70
2021/12/08 09:30:45;;;;;;;;;;;8.70;48.10;;;;;;4960798;28;20403;-67
2021/12/08 09:33:19;;;;;;;;;;;8.70;48.40;;;;;;4974604;28;19923;-74
2021/12/08 09:35:51;;;;;;;;;;;8.70;48.80;;;;;;4975093;28;19927;-70
2021/12/08 09:38:43;;;;;;;;;;;8.80;49.40;;;;;;4975596;28;20291;-69
2021/12/08 09:41:13;;;;;;;;;;;8.80;49.20;;;;;;4956056;28;20036;-65
2021/12/08 09:43:38;;;;;;;;;;;8.80;49.50;;;;;;4975419;28;19929;-70
2021/12/08 09:46:07;;;;;;;;;;;8.80;49.90;;;;;;4973988;28;19970;-69
2021/12/08 09:48:33;;;;;;;;;;;8.80;50.10;;;;;;4974127;28;19957;-62
2021/12/08 09:50:59;;;;;;;;;;;8.90;50.30;;;;;;4976514;28;19940;-67
2021/12/08 09:53:26;;;;;;;;;;;8.90;50.20;;;;;;4973834;28;19918;-65
2021/12/08 09:55:53;;;;;;;;;;;9.00;50.00;;;;;;4977777;28;19923;-63
2021/12/08 09:58:19;;;;;;;;;;;9.00;50.10;;;;;;4992712;28;19937;-66
2021/12/08 10:00:46;;;;;;;;;;;8.90;49.60;;;;;;4973436;28;19971;-66
2021/12/08 10:03:14;;;;;;;;;;;8.90;50.10;;;;;;4976489;28;19925;-62
2021/12/08 10:05:41;;;;;;;;;;;8.90;49.70;;;;;;4976288;28;20004;-69
2021/12/08 10:08:07;;;;;;;;;;;8.90;49.70;;;;;;4973366;28;19949;-63
2021/12/08 10:10:33;;;;;;;;;;;8.80;50.30;;;;;;4973617;28;19941;-62
2021/12/08 10:12:59;;;;;;;;;;;8.90;50.50;;;;;;4974334;28;20322;-65
2021/12/08 10:15:25;;;;;;;;;;;8.90;51.00;;;;;;4958588;28;19937;-62
2021/12/08 10:17:50;;;;;;;;;;;8.90;51.30;;;;;;4981855;28;20000;-68
2021/12/08 10:20:22;;;;;;;;;;;8.90;51.90;;;;;;4992173;28;20299;-62
2021/12/08 10:23:07;;;;;;;;;;;9.00;51.70;;;;;;4966666;28;19934;-65
2021/12/08 10:25:34;;;;;;;;;;;8.90;50.90;;;;;;4972992;28;19927;-63
2021/12/08 10:28:03;;;;;;;;;;;8.90;52.30;;;;;;4978429;28;19946;-66
2021/12/08 10:30:28;;;;;;;;;;;8.90;52.80;;;;;;4987372;28;19938;-66
2021/12/08 10:32:54;;;;;;;;;;;8.80;52.50;;;;;;4982160;28;19975;-66
2021/12/08 10:35:41;;;;;;;;;;;8.80;53.40;;;;;;4973926;28;19922;-64
2021/12/08 10:38:07;;;;;;;;;;;8.90;54.20;;;;;;4974205;28;19947;-66
2021/12/08 10:40:32;;;;;;;;;;;9.00;53.60;;;;;;4973820;28;20344;-64
2021/12/08 10:42:58;;;;;;;;;;;9.10;53.30;;;;;;4973563;28;19921;-66
2021/12/08 10:45:27;;;;;;;;;;;9.20;52.00;;;;;;4973566;28;19919;-65
2021/12/08 10:47:55;;;;;;;;;;;9.40;51.70;;;;;;4973789;28;19951;-67
2021/12/08 10:56:04;;;;;;;;;;;9.50;50.30;;;;;;4974348;28;19966;-66
2021/12/08 10:58:31;;;;;;;;;;;9.50;50.40;;;;;;4975916;28;19925;-63
2021/12/08 11:00:59;;;;;;;;;;;9.50;49.90;;;;;;4982782;28;20029;-67
2021/12/08 11:03:29;;;;;;;;;;;9.50;50.20;;;;;;4980421;28;19935;-66
2021/12/08 11:05:56;;;;;;;;;;;9.40;50.30;;;;;;4960515;28;19962;-68
2021/12/08 11:08:27;;;;;;;;;;;9.50;50.60;;;;;;4977857;28;20401;-65
2021/12/08 11:10:54;;;;;;;;;;;9.50;50.50;;;;;;4977691;28;19944;-65
2021/12/08 11:13:24;;;;;;;;;;;9.50;50.00;;;;;;4977626;28;20024;-65
2021/12/08 11:15:58;;;;;;;;;;;9.60;50.10;;;;;;4978912;28;19931;-65
2021/12/08 11:18:24;;;;;;;;;;;9.60;50.30;;;;;;4978603;28;20373;-66
2021/12/08 11:20:52;;;;;;;;;;;9.60;50.00;;;;;;4978538;28;19941;-66
2021/12/08 11:23:39;;;;;;;;;;;9.70;49.40;;;;;;4978737;28;19920;-65
2021/12/08 11:26:23;;;;;;;;;;;9.80;49.00;;;;;;4978278;28;19929;-67
2021/12/08 11:28:52;;;;;;;;;;;9.60;49.20;;;;;;4959740;28;19936;-64
2021/12/08 11:31:18;;;;;;;;;;;9.60;49.60;;;;;;4977202;28;19993;-64
2021/12/08 11:33:49;;;;;;;;;;;9.70;49.30;;;;;;4977349;28;19919;-64
2021/12/08 11:36:18;;;;;;;;;;;9.60;48.80;;;;;;4977510;28;19936;-66
2021/12/08 11:38:45;;;;;;;;;;;9.40;48.90;;;;;;4977156;28;19934;-65
2021/12/08 11:41:22;;;;;;;;;;;9.50;49.40;;;;;;4977128;28;20394;-64
2021/12/08 11:43:54;;;;;;;;;;;9.60;49.60;;;;;;4977299;28;20016;-66
2021/12/08 11:46:21;;;;;;;;;;;9.70;48.80;;;;;;4959736;28;19925;-64
2021/12/08 11:51:31;;;;;;;;;;;9.60;48.00;;;;;;4976990;28;19991;-61
2021/12/08 11:53:57;;;;;;;;;;;9.60;48.50;;;;;;4976871;28;19922;-61
2021/12/08 11:56:34;;;;;;;;;;;9.60;48.50;;;;;;4976851;28;20018;-65
2021/12/08 11:59:00;;;;;;;;;;;9.60;48.60;;;;;;4976768;28;19924;-61
2021/12/08 12:01:25;;;;;;;;;;;9.60;48.30;;;;;;4976756;28;19986;-64
2021/12/08 12:03:51;;;;;;;;;;;9.50;48.70;;;;;;4976737;28;19990;-61
2021/12/08 12:06:17;;;;;;;;;;;9.50;48.60;;;;;;4976423;28;19932;-62
2021/12/08 12:08:44;;;;;;;;;;;9.50;49.00;;;;;;4976174;28;20039;-66
2021/12/08 12:11:10;;;;;;;;;;;9.60;49.30;;;;;;4976419;28;19938;-66
2021/12/08 12:13:35;;;;;;;;;;;9.60;49.70;;;;;;4975995;28;19926;-66
2021/12/08 12:16:01;;;;;;;;;;;9.50;49.80;;;;;;4976590;28;19969;-67
2021/12/08 12:18:31;;;;;;;;;;;9.60;49.90;;;;;;4976215;28;19928;-62
2021/12/08 12:21:08;;;;;;;;;;;9.60;50.10;;;;;;4976375;28;19938;-73
2021/12/08 12:23:34;;;;;;;;;;;9.70;50.30;;;;;;4976749;28;19973;-68
2021/12/08 12:26:18;;;;;;;;;;;9.70;50.80;;;;;;4977510;28;19923;-69
2021/12/08 12:28:53;;;;;;;;;;;9.70;51.40;;;;;;4975253;28;19986;-73
2021/12/08 12:31:19;;;;;;;;;;;9.70;51.20;;;;;;4975653;28;19935;-75
2021/12/08 12:33:46;;;;;;;;;;;9.70;50.80;;;;;;4958086;28;19925;-69
2021/12/08 12:36:23;;;;;;;;;;;9.60;51.20;;;;;;4975526;28;19958;-70
2021/12/08 12:38:50;;;;;;;;;;;9.60;51.60;;;;;;4975631;28;19919;-67
2021/12/08 12:41:23;;;;;;;;;;;9.60;52.20;;;;;;4975387;28;19980;-63
2021/12/08 12:43:50;;;;;;;;;;;9.60;50.90;;;;;;4975409;28;20458;-62
2021/12/08 12:46:16;;;;;;;;;;;9.60;51.60;;;;;;4975554;28;19936;-62
2021/12/08 12:48:43;;;;;;;;;;;9.70;51.40;;;;;;4975094;28;19991;-62
2021/12/08 12:51:13;;;;;;;;;;;9.80;51.70;;;;;;4975103;28;20070;-61
2021/12/08 12:53:39;;;;;;;;;;;9.90;51.30;;;;;;4974997;28;19929;-63
2021/12/08 12:56:06;;;;;;;;;;;9.90;49.90;;;;;;4975540;28;19923;-63
2021/12/08 12:58:38;;;;;;;;;;;9.80;49.60;;;;;;4979099;28;19930;-66
2021/12/08 13:01:06;;;;;;;;;;;9.70;50.60;;;;;;4979045;28;19943;-62
2021/12/08 13:03:40;;;;;;;;;;;9.70;49.90;;;;;;4959341;28;20393;-65
2021/12/08 13:06:08;;;;;;;;;;;9.70;50.20;;;;;;4958051;28;20014;-68
2021/12/08 13:08:39;;;;;;;;;;;9.50;50.20;;;;;;4956217;29;20370;-60
2021/12/08 13:11:12;;;;;;;;;;;9.50;51.20;;;;;;4955584;29;19981;-62
2021/12/08 13:13:48;;;;;;;;;;;9.40;52.20;;;;;;4955283;29;19931;-62
2021/12/08 13:16:28;;;;;;;;;;;9.30;51.20;;;;;;4955616;29;19961;-65
2021/12/08 13:18:58;;;;;;;;;;;9.30;51.40;;;;;;4955494;29;20355;-61
2021/12/08 13:21:43;;;;;;;;;;;9.10;51.80;;;;;;4954541;28;19959;-64
2021/12/08 13:24:27;;;;;;;;;;;9.20;52.50;;;;;;4955114;28;20339;-65
2021/12/08 13:26:59;;;;;;;;;;;9.20;52.40;;;;;;4954573;28;19936;-65
2021/12/08 13:29:25;;;;;;;;;;;9.30;52.70;;;;;;4954459;28;20268;-61
2021/12/08 13:32:10;;;;;;;;;;;9.20;53.10;;;;;;4954419;28;20044;-65
2021/12/08 13:34:37;;;;;;;;;;;9.10;53.90;;;;;;4954569;28;19925;-62
2021/12/08 13:37:13;;;;;;;;;;;9.00;54.60;;;;;;4955085;29;19925;-63
2021/12/08 13:39:41;;;;;;;;;;;9.10;54.70;;;;;;4954975;29;19967;-62
2021/12/08 13:42:13;;;;;;;;;;;9.20;55.20;;;;;;4955082;29;19926;-63
2021/12/08 13:44:41;;;;;;;;;;;9.20;55.80;;;;;;4954760;29;19925;-61
2021/12/08 13:47:08;;;;;;;;;;;9.20;57.30;;;;;;4954937;29;19951;-69
2021/12/08 13:49:45;;;;;;;;;;;9.30;58.10;;;;;;4954950;29;19928;-68
2021/12/08 13:52:12;;;;;;;;;;;9.10;58.20;;;;;;4955026;29;19932;-64
2021/12/08 13:54:42;;;;;;;;;;;9.20;58.90;;;;;;4954916;29;19924;-71
2021/12/08 13:57:26;;;;;;;;;;;9.00;59.20;;;;;;4957443;29;19918;-70
2021/12/08 14:00:11;;;;;;;;;;;8.80;60.70;;;;;;4954740;29;19918;-69
2021/12/08 14:02:36;;;;;;;;;;;8.80;61.20;;;;;;4954804;29;19923;-70
2021/12/08 14:05:22;;;;;;;;;;;8.70;61.30;;;;;;4966621;28;19956;-71
2021/12/08 14:07:50;;;;;;;;;;;8.60;62.20;;;;;;4973762;28;19964;-69
2021/12/08 14:10:18;;;;;;;;;;;8.60;62.30;;;;;;4974001;28;19942;-65
2021/12/08 14:12:48;;;;;;;;;;;8.60;63.50;;;;;;4969835;28;19926;-67
2021/12/08 14:15:18;;;;;;;;;;;8.60;64.10;;;;;;4980787;28;19919;-71
2021/12/08 14:17:44;;;;;;;;;;;8.70;64.00;;;;;;4973595;28;19932;-62
2021/12/08 14:20:25;;;;;;;;;;;8.60;65.00;;;;;;4977967;28;19940;-69
2021/12/08 14:22:51;;;;;;;;;;;8.50;65.10;;;;;;4990410;28;20381;-70
2021/12/08 14:25:16;;;;;;;;;;;8.50;66.10;;;;;;4985427;28;19977;-67
2021/12/08 14:27:42;;;;;;;;;;;8.50;66.60;;;;;;4973455;28;20029;-69
2021/12/08 14:30:08;;;;;;;;;;;8.50;66.90;;;;;;4974633;28;19945;-67
2021/12/08 14:32:33;;;;;;;;;;;8.50;67.20;;;;;;4974858;28;19918;-63
2021/12/08 14:35:07;;;;;;;;;;;8.50;67.30;;;;;;4994895;28;19965;-64
2021/12/08 14:37:32;;;;;;;;;;;8.40;67.80;;;;;;4980284;28;19920;-61
2021/12/08 14:40:00;;;;;;;;;;;8.40;68.10;;;;;;4977075;28;19948;-72
2021/12/08 14:42:33;;;;;;;;;;;8.40;69.10;;;;;;4979785;28;19975;-64
2021/12/08 14:45:07;;;;;;;;;;;8.40;68.90;;;;;;4961128;28;19919;-69
2021/12/08 14:47:36;;;;;;;;;;;8.30;69.60;;;;;;4976231;28;19945;-72
2021/12/08 14:50:06;;;;;;;;;;;8.40;70.00;;;;;;4975775;28;20002;-67
2021/12/08 14:52:33;;;;;;;;;;;8.50;69.10;;;;;;4975636;28;20049;-67
2021/12/08 14:54:59;;;;;;;;;;;8.40;69.60;;;;;;4975609;28;19933;-65
2021/12/08 14:57:48;;;;;;;;;;;8.40;69.60;;;;;;4978083;28;20245;-72
2021/12/08 15:00:16;;;;;;;;;;;8.30;69.50;;;;;;4986116;28;20371;-68
2021/12/08 15:02:44;;;;;;;;;;;8.30;70.00;;;;;;4976955;28;19926;-70
2021/12/08 15:05:12;;;;;;;;;;;8.30;70.00;;;;;;4976003;28;20025;-63
2021/12/08 15:07:38;;;;;;;;;;;8.40;69.50;;;;;;4986928;28;19941;-67
2021/12/08 15:10:10;;;;;;;;;;;8.40;68.90;;;;;;4984627;28;19938;-68
2021/12/08 15:12:47;;;;;;;;;;;8.30;69.70;;;;;;4980384;28;20030;-66
2021/12/08 15:15:16;;;;;;;;;;;8.30;70.20;;;;;;4979445;28;20390;-65
2021/12/08 15:17:45;;;;;;;;;;;8.20;70.10;;;;;;4967939;28;19933;-66
2021/12/08 15:20:12;;;;;;;;;;;8.20;70.70;;;;;;4989946;28;19947;-62
2021/12/08 15:22:46;;;;;;;;;;;8.20;70.70;;;;;;4983661;28;19923;-63
2021/12/08 15:25:14;;;;;;;;;;;8.10;71.00;;;;;;4991080;28;19918;-61
2021/12/08 15:27:42;;;;;;;;;;;7.90;71.20;;;;;;4980292;28;19996;-63
2021/12/08 15:30:08;;;;;;;;;;;7.70;72.00;;;;;;4976835;28;19940;-64
2021/12/08 15:32:33;;;;;;;;;;;7.60;72.60;;;;;;4975044;28;19921;-65